Bois de Clairmarais à St Omer (62) - D D14-16-50-55-60+ H14-60+ IC

Date : 20/09/2014
Distance : 4,300 km

Place Nom Licence Catégorie Club Temps min/km CN à J-60 Points Différence Nouveau CN
1 DELCUSE Mathis 26817 H12 6205NO 0:42:30 9'53 2385 3577 +1192 2645
2 CHARLES Thierry 1514 H60 0207PI 0:44:56 10'26 4474 3384 -1090 4566
3 CAROULLE matteo 29019 H14 6208NO 0:45:05 10'29 1847 3372 +1525 1886
4 URVOY Mateo 22540 H14 6203NO 0:46:57 10'55 3548 3238 -310 3483
5 THOMAS louis 29016 H14 6208NO 0:48:22 11'14 3160 3143 -17 3193
6 GRESSIER Hugo 29021 H14 6208NO 0:49:05 11'24 2576 3098 +522 2731
7 LABARRE Maria 29467 D16 6205NO 0:49:29 11'30 3354 3072 -282 3488
8 PRUVOST Mathis 25973 H14 6205NO 0:53:57 12'32 2392 2818 +426 2787
9 FAGOT Clémence 27224 D14 6205NO 0:56:14 13'04 2528 2704 +176 2638
10 VEROVE Apolline 24071 D14 5907NO 1:00:15 14'00 2791 2523 -268 2861
11 VANOVERBERGHE Mathilde 22238 D16 6203NO 1:04:33 15'00 3029 2355 -674 2849
12 LECOYER Annick 2885 D60 0207PI 1:08:22 15'53 2946 2224 -722 2999
13 PECQUART Judicaël 28804 H14 6203NO 1:08:49 16'00 2023 2209 +186 2234
14 LECOYER Regis 2884 H60 0207PI 1:10:13 16'19 3105 2165 -940 3164
15 DUCROCQ yoni 27243 H14 6208NO 1:12:32 16'52 1497 2096 +599 1830
16 DULARY Louise 27712 D16 6203NO 1:12:52 16'56 2708 2086 -622 2708
17 JULIEN PIERRE 27520 H14 6208NO 1:16:35 17'48 1408 1985 +577 1768
18 LAMINETTE M-Odile 17201 D50 5907NO 1:19:10 18'24 2224 1920 -304 2686
19 CHOPIN Olivier 29939 H40 6203NO 1:19:13 18'25 1919 0
20 BAUD Sandrine 27612 D35 6203NO 1:23:49 19'29 2190 1814 -376 2284
21 DURIEZ Corinne 27971 D45 6203NO 1:27:14 20'17 1802 1743 -59 1902
22 JUDAS Sylvaine 13635 D55 6208NO 1:39:55 23'14 1923 1522 -401 1923
23 POULAIN Odile 1948 D50 5909NO 1:40:45 23'25 2753 1509 -1244 2742
24 RAIFF Simon 25356 H12 5909NO 1:46:49 24'50 1493 1423 -70 1615
25 AGOUDJIL Abdessalem 25486 H14 5906NO 1:49:44 25'31 1436 1386 -50 1488
26 EVRARD Lolita 25358 D14 5909NO 1:50:39 25'43 1374 0
27 GOSSE Coline 25360 D14 5909NO 1:54:45 26'41 1325 0
28 LUDEWIG-JAMES Carol 15894 D75 5907NO 2:12:38 30'50 1751 1146 -605 1751
FAVIER elisa 25984 D14 6208NO abandon None 1967 0 2197